CheckWX is a tool to help pilots better visualize weather data.  It is not intended as a substitute for an official pre-flight weather briefing.

14:33:37 UTC

LICT METAR
Vincenzo Florio Trapani-Birgi Airport
Trapani, Italy
Current

39 mins ago

LICT 031355Z 32013KT 9999 FEW016 27/25 Q1012
Observed
Jul-3 @ 13:55 UTC
Wind
  • 320° at 13 KTS
Visibility
10,000+ meters
Flight Rules
VFR
Cloud Levels
  • Few at 1,600' AGL
Temperature
27°C / 81°F
Dewpoint
25°C / 77°F
Humidity
89%
Altimeter
29.88" Hg
Pressure
1011.92 hPa
Previous

39 mins ago

LICT 031355Z 32013KT 9999 FEW016 27/25 Q1012 RMK FEW VIS MIN 9999 WIND THR13 29010KT BLU
Observed
Jul-3 @ 13:55 UTC
Wind
  • 320° at 13 KTS
Visibility
10,000+ meters
Flight Rules
VFR
Cloud Levels
  • Few at 1,600' AGL
Temperature
27°C / 81°F
Dewpoint
25°C / 77°F
Humidity
89%
Altimeter
29.88" Hg
Pressure
1011.92 hPa
Previous

2 hours ago

LICT 031255Z 33012KT 9999 FEW016 27/25 Q1012
Observed
Jul-3 @ 12:55 UTC
Wind
  • 330° at 12 KTS
Visibility
10,000+ meters
Flight Rules
VFR
Cloud Levels
  • Few at 1,600' AGL
Temperature
27°C / 81°F
Dewpoint
25°C / 77°F
Humidity
89%
Altimeter
29.88" Hg
Pressure
1011.92 hPa